»·PEaware :: AAL2399 KSAN-KPHX

AAL2399 :: KSAN-KPHX

FLIGHT INFORMATION

Flight Status: Arrived
Operator:
American Airlines
More flights by this operator :: More flights under this callsign
Pilot: Alex A. (3534)
Aircraft: BOEING 737-300
(B733)
More flights by this aircraft type
Origin: KSAN San Diego Intl-Lindbergh
United States
Destination: KPHX Phoenix Sky Harbor Intl
United States
More flights between these airports :: More routes between these airports
Route: +ZZOOO1 IPL J18 BZA HOGGZ HYDRR1
File this flight plan on PilotEdge
Remarks:
Altitude:
(Current/Filed)
27,000ft
Speed:
(Current/Filed)
466kts
Departed: 22-Sep-17 09:49 AM
Arrived: 22-Sep-17 10:44 AM
Distance/Time
Traveled:
263nm/0:54
Distance/Time
To Go:
Arrived

Flight Plot

Page will automatically refresh every two minutes.


Map Options




Map Legend


Flown Route
Filed Route
Departure Airport
Arrival Airport
Navaid (VOR, NDB)
Fix

Horizontal Profiles

Position Reports

Time Latitude Longitude Heading Altitude Ground
Speed
22-Sep-17 09:22 32.733831 -117.198138 207 24ft 0kts
22-Sep-17 09:23 32.733831 -117.198138 207 24ft 0kts
22-Sep-17 09:24 32.733831 -117.198138 207 24ft 0kts
22-Sep-17 09:25 32.733831 -117.198138 207 24ft 0kts
22-Sep-17 09:26 32.733831 -117.198138 207 24ft 0kts
22-Sep-17 09:27 32.733831 -117.198138 207 24ft 0kts
22-Sep-17 09:28 32.733831 -117.198138 207 24ft 0kts
22-Sep-17 09:29 32.733831 -117.198138 207 24ft 0kts
22-Sep-17 09:30 32.733831 -117.198138 207 24ft 0kts
22-Sep-17 09:31 32.733831 -117.198138 207 24ft 0kts
22-Sep-17 09:32 32.733831 -117.198138 207 24ft 0kts
22-Sep-17 09:33 32.733831 -117.198138 207 24ft 0kts
22-Sep-17 09:34 32.733831 -117.198138 207 24ft 0kts
22-Sep-17 09:35 32.733831 -117.198138 207 24ft 0kts
22-Sep-17 09:36 32.733831 -117.198138 207 24ft 0kts
22-Sep-17 09:37 32.733831 -117.198138 207 24ft 0kts
22-Sep-17 09:38 32.733831 -117.198138 207 24ft 0kts
22-Sep-17 09:39 32.734000 -117.198054 203 24ft 0kts
22-Sep-17 09:40 32.734198 -117.198025 98 24ft 0kts
22-Sep-17 09:41 32.734198 -117.198025 98 24ft 0kts
22-Sep-17 09:42 32.734198 -117.198025 98 24ft 0kts
22-Sep-17 09:43 32.734198 -117.198025 98 24ft 0kts
22-Sep-17 09:44 32.734219 -117.197201 102 24ft 6kts
22-Sep-17 09:45 32.733709 -117.194596 100 24ft 10kts
22-Sep-17 09:46 32.732793 -117.190787 105 24ft 13kts
22-Sep-17 09:47 32.731638 -117.186023 107 24ft 16kts
22-Sep-17 09:48 32.730604 -117.181806 104 24ft 5kts
22-Sep-17 09:49 32.729902 -117.178841 105 24ft 13kts
22-Sep-17 09:50 32.729521 -117.176725 75 24ft 1kts
22-Sep-17 09:51 32.730233 -117.176038 296 24ft 10kts
22-Sep-17 09:52 32.730534 -117.177194 283 24ft 24kts
22-Sep-17 09:53 32.740169 -117.216439 284 488ft 173kts
22-Sep-17 09:54 32.755183 -117.280305 276 2011ft 229kts
22-Sep-17 09:55 32.711150 -117.310235 147 4016ft 256kts
22-Sep-17 09:56 32.651732 -117.262257 146 6729ft 270kts
22-Sep-17 09:57 32.627290 -117.197031 99 8849ft 285kts
22-Sep-17 09:58 32.616573 -117.078771 97 10406ft 353kts
22-Sep-17 09:59 32.610086 -117.006156 95 11783ft 367kts
22-Sep-17 10:00 32.611105 -116.867852 74 14392ft 383kts
22-Sep-17 10:01 32.633491 -116.743530 81 16521ft 399kts
22-Sep-17 10:02 32.643981 -116.633671 81 18260ft 411kts
22-Sep-17 10:03 32.657092 -116.499174 81 20179ft 425kts
22-Sep-17 10:04 32.672693 -116.337435 82 22208ft 440kts
22-Sep-17 10:05 32.683814 -116.220528 82 22973ft 446kts
22-Sep-17 10:06 32.695539 -116.096236 82 22882ft 444kts
22-Sep-17 10:07 32.704972 -115.990931 82 22892ft 440kts
22-Sep-17 10:08 32.716864 -115.862958 82 22889ft 440kts
22-Sep-17 10:09 32.729798 -115.722024 82 22864ft 440kts
22-Sep-17 10:10 32.742848 -115.578239 82 22861ft 440kts
22-Sep-17 10:11 32.750881 -115.434139 87 22862ft 440kts
22-Sep-17 10:12 32.754031 -115.295276 87 22880ft 439kts
22-Sep-17 10:13 32.757397 -115.150657 87 22888ft 440kts
22-Sep-17 10:14 32.760569 -115.005714 88 22888ft 440kts
22-Sep-17 10:15 32.763300 -114.861198 87 22887ft 439kts
22-Sep-17 10:16 32.766160 -114.716427 87 22888ft 439kts
22-Sep-17 10:17 32.768653 -114.572204 88 22889ft 439kts
22-Sep-17 10:18 32.770601 -114.427567 88 22887ft 438kts
22-Sep-17 10:19 32.772562 -114.285049 88 22882ft 438kts
22-Sep-17 10:20 32.774242 -114.146180 88 22888ft 438kts
22-Sep-17 10:21 32.781852 -114.003131 80 22889ft 437kts
22-Sep-17 10:22 32.797546 -113.863385 81 22861ft 437kts
22-Sep-17 10:23 32.813205 -113.720314 80 22861ft 438kts
22-Sep-17 10:24 32.877847 -113.605279 43 22864ft 427kts
22-Sep-17 10:25 32.956426 -113.500252 44 22860ft 427kts
22-Sep-17 10:26 33.034754 -113.394568 44 22840ft 428kts
22-Sep-17 10:27 33.108843 -113.294041 44 21792ft 421kts
22-Sep-17 10:28 33.184640 -113.191694 44 21864ft 425kts
22-Sep-17 10:29 33.262132 -113.086013 50 21852ft 427kts
22-Sep-17 10:30 33.277950 -112.953999 88 20833ft 397kts
22-Sep-17 10:31 33.280541 -112.827812 86 19670ft 378kts
22-Sep-17 10:32 33.291473 -112.706060 81 17850ft 368kts
22-Sep-17 10:33 33.302665 -112.587521 81 15992ft 357kts
22-Sep-17 10:34 33.313446 -112.471826 81 14191ft 344kts
22-Sep-17 10:35 33.323724 -112.360389 84 14005ft 343kts
22-Sep-17 10:36 33.333939 -112.245609 84 10094ft 403kts
22-Sep-17 10:37 33.345013 -112.123796 84 9022ft 333kts
22-Sep-17 10:38 33.347016 -112.027987 90 8980ft 249kts
22-Sep-17 10:39 33.345488 -111.946330 90 7479ft 251kts
22-Sep-17 10:40 33.345363 -111.865547 90 6997ft 248kts
22-Sep-17 10:41 33.348312 -111.784022 75 6982ft 249kts
22-Sep-17 10:42 33.399500 -111.752408 359 6427ft 208kts
22-Sep-17 10:43 33.427240 -111.798627 278 4643ft 208kts
22-Sep-17 10:44 33.428837 -111.862329 271 3425ft 166kts
22-Sep-17 10:45 33.428702 -111.913696 271 2600ft 151kts
22-Sep-17 10:46 33.428942 -111.963028 273 1930ft 145kts
22-Sep-17 10:47 33.428885 -112.010191 269 1141ft 112kts
22-Sep-17 10:48 33.429223 -112.021196 293 1141ft 0kts
22-Sep-17 10:49 33.429883 -112.021146 85 1141ft 9kts
22-Sep-17 10:50 33.429948 -112.017665 90 1141ft 12kts
22-Sep-17 10:51 33.431641 -112.015692 2 1141ft 0kts
22-Sep-17 10:52 33.432149 -112.015396 69 1141ft 1kts

Navigation Log

Ident Type
1. KSAN Airport
2. JETTI Fix
3. ZZOOO Fix
4. JORRJ Fix
5. GRIDR Fix
6. BLUZE Fix
7. IPL Navaid
8. IPL Navaid
9. HEEDS Fix
10. BZA Navaid
11. HOGGZ Fix
12. JUDTH Fix
13. RKDAM Fix
14. HYDRR Fix
15. GEELA Fix
16. PUNNT Fix
17. TEICH Fix
18. TESLE Fix
19. FALGO Fix
20. CAGOR Fix
21. FOWLE Fix
22. KPHX Airport